Nearby METAR Reports

 

KSJC - San Jose, California, USA
Distance from station: NE 14km
Updated: 03/03/2024 02:53
Mostly cloudy
Mostly cloudy
 Wind from S
Wind: S 19 km/h
Temperature: 11°C
Dew Point: 6°C
Humidity: 72%
Barometer: 1010.2 hPa
Clouds: Mostly cloudy
Visibility: 16 km
Cloud details: Few Clouds 427 m
Partly cloudy 1676 m
Mostly cloudy 3658 m
2024/03/03 00:53 KSJC 030053Z 17010KT 10SM FEW014 SCT055 BKN120 11/06 A2983 RMK AO2 RAE45 SLP100 P0000 T01110061
KNUQ - Moffett Nas/Mtn, California, USA
Distance from station: N 14km
Updated: 03/03/2024 03:15
Mostly cloudy
Mostly cloudy
 Wind from S
Wind: S 11 km/h
Temperature: 11°C
Dew Point: 6°C
Humidity: 72%
Barometer: 1009.8 hPa
Clouds: Mostly cloudy
Visibility: 16 km
Cloud details: Mostly cloudy 1280 m
Mostly cloudy 1829 m
Mostly cloudy 2286 m
2024/03/03 01:15 KNUQ 030115Z AUTO 17006KT 10SM BKN042 BKN060 BKN075 11/06 A2982 RMK AO2
 
KPAO - Palo Alto, California, USA
Distance from station: NNW 23km
Updated: 03/03/2024 02:47
Mostly cloudy
Mostly cloudy
 Wind from S
Wind: S 17 km/h
Temperature: 10°C
Wind Chill: 8°C
Dew Point: 5°C
Humidity: 71%
Barometer: 1010.2 hPa
Clouds: Mostly cloudy
Visibility: 16 km
Cloud details: Mostly cloudy 1219 m
2024/03/03 00:47 KPAO 030047Z 19009KT 10SM BKN040 10/05 A2983
KRHV - San Jose/Reid, California, USA
Distance from station: ENE 19km
Updated: 03/03/2024 02:47
Mostly cloudy
Mostly cloudy
 Wind from E
Wind: E 11 km/h
Temperature: 10°C
Wind Chill: 8°C
Dew Point: 6°C
Humidity: 76%
Barometer: 1010.8 hPa
Clouds: Mostly cloudy
Visibility: 11 km
Cloud details: Mostly cloudy 853 m
2024/03/03 00:47 KRHV 030047Z 10006KT 7SM BKN028 10/06 A2985
 
KOAK - Oakland, California, USA
Distance from station: NNW 50km
Updated: 03/03/2024 02:53
Mostly cloudy
Mostly cloudy
 Wind from S
Wind: S 33 km/h
Temperature: 10°C
Wind Chill: 6°C
Dew Point: 8°C
Humidity: 88%
Barometer: 1009.1 hPa
Clouds: Mostly cloudy
Visibility: 16 km
Cloud details: Few Clouds 701 m
Partly cloudy 1402 m
Mostly cloudy 3048 m
2024/03/03 00:53 KOAK 030053Z 19018KT 10SM FEW023 SCT046 BKN100 10/08 A2980 RMK AO2 RAB20E40 SLP091 P0001 T01000078
KSQL - San Carlos Airpo, California, USA
Distance from station: NW 34km
Updated: 03/03/2024 02:50
Nearby showers, Overcast
Nearby showers, Overcast
 Wind from SW
Wind: SW 13 km/h
Temperature: 9°C
Wind Chill: 7°C
Dew Point: 7°C
Humidity: 87%
Barometer: 1010.2 hPa
Summary: Nearby Showers
Clouds: Overcast
Visibility: 8 km
Cloud details: Partly cloudy 640 m
Overcast 975 m
2024/03/03 00:50 KSQL 030050Z 23007KT 5SM VCSH SCT021 OVC032 09/07 A2983
 
KSFO - San Francisco, California, USA
Distance from station: NW 49km
Updated: 03/03/2024 02:56
Mostly cloudy
Mostly cloudy
 Wind from SSW
Wind: SSW 33 km/h, Gust: 57 km/h
Temperature: 10°C
Wind Chill: 6°C
Dew Point: 7°C
Humidity: 82%
Barometer: 1008.8 hPa
Clouds: Mostly cloudy
Visibility: 16 km
Cloud details: Few Clouds 518 m
Partly cloudy 1524 m
Mostly cloudy 2896 m
2024/03/03 00:56 KSFO 030056Z 20018G31KT 10SM FEW017 SCT050 BKN095 10/07 A2979 RMK AO2 PK WND 20031/0056 RAE37 SLP089 P0002 T01000067 $
KE16 - San Martin, California, USA
Distance from station: ESE 43km
Updated: 03/03/2024 03:15
Mist, Overcast
Mist, Overcast
 Wind from SSW
Wind: SSW 9 km/h
Temperature: 8°C
Wind Chill: 6°C
Dew Point: 8°C
Humidity: 100%
Barometer: 1011.5 hPa
Summary: Mist
Clouds: Overcast
Visibility: 3 km
Cloud details: Partly cloudy 91 m
Mostly cloudy 732 m
Overcast 914 m
2024/03/03 01:15 KE16 030115Z AUTO 20005KT 2SM BR SCT003 BKN024 OVC030 08/08 A2987 RMK AO2 PWINO PNO
 
KWVI - Watsonville, California, USA
Distance from station: SSE 44km
Updated: 03/03/2024 02:53
Light rain, Overcast
Light rain, Overcast
 Wind from WSW
Wind: WSW 13 km/h
Temperature: 9°C
Wind Chill: 7°C
Dew Point: 7°C
Humidity: 87%
Barometer: 1011.2 hPa
Summary: Light rain
Clouds: Overcast
Visibility: 16 km
Cloud details: Partly cloudy 975 m
Mostly cloudy 1372 m
Overcast 1829 m
2024/03/03 00:53 KWVI 030053Z AUTO 24007KT 10SM -RA SCT032 BKN045 OVC060 09/07 A2986 RMK AO2 SLP111 P0002 T00940072
KHAF - Half Moon Bay, California, USA
Distance from station: WNW 50km
Updated: 03/03/2024 03:15
Light rain, Mist, Overcast
Light rain, Mist, Overcast
 Wind from SSW
Wind: SSW 24 km/h, Gust: 41 km/h
Temperature: 10°C
Wind Chill: 7°C
Dew Point: 9°C
Humidity: 94%
Barometer: 1009.5 hPa
Summary: Light rain, Mist
Clouds: Overcast
Visibility: 2.8 km
Cloud details: Partly cloudy 579 m
Mostly cloudy 762 m
Overcast 1158 m
2024/03/03 01:15 KHAF 030115Z AUTO 20013G22KT 170V230 1 3/4SM -RA BR SCT019 BKN025 OVC038 10/09 A2981 RMK AO2
 
KHWD - Hayward, California, USA
Distance from station: N 44km
Updated: 03/03/2024 02:54
Light rain, Mostly cloudy
Light rain, Mostly cloudy
 Wind from SSW
Wind: SSW 20 km/h, Gust: 35 km/h
Temperature: 11°C
Dew Point: 7°C
Humidity: 77%
Barometer: 1009.5 hPa
Summary: Light rain
Clouds: Mostly cloudy
Visibility: 14 km
Cloud details: Mostly cloudy 853 m
Mostly cloudy 1341 m
2024/03/03 00:54 KHWD 030054Z 20011G19KT 9SM -RA BKN028 BKN044 11/07 A2981 RMK AO2 SLP102 P0002 T01060067
KLVK - Livermore, California, USA
Distance from station: NNE 51km
Updated: 03/03/2024 02:53
Light rain, Overcast
Light rain, Overcast
 Wind from WSW
Wind: WSW 20 km/h
Temperature: 8°C
Wind Chill: 4°C
Dew Point: 6°C
Humidity: 87%
Barometer: 1009.5 hPa
Summary: Light rain
Clouds: Overcast
Visibility: 11 km
Cloud details: Mostly cloudy 823 m
Overcast 1006 m
2024/03/03 00:53 KLVK 030053Z 24011KT 7SM -RA BKN027 OVC033 08/06 A2981 RMK AO2 SLP092 P0010 T00830056